Latest Weather Observations for Ballina

IDN60801

Issued at 12:02 pm EST Monday 1 May 2017 (issued every 30 minutes, with the page automatically refreshed every 10 minutes)

About weather observations | Map of weather stations | Latest weather observations for NSW | Other Formats
Station Details ID: 058198 Name: BALLINA AIRPORT AWS Lat: -28.84 Lon: 153.56 Height: 1.3 m
Data from the previous 72 hours. | See also: Recent months at Ballina
Date/Time
EST
Temp
°C
App
Temp
°C
Dew
Point
°C
Rel
Hum
%
Delta-T
°C
Wind Press
QNH
hPa
Press
MSL
hPa
Rain since
9am
mm
Dir  Spd
km/h
Gust
km/h
Spd
kts
Gust
kts
01/12:00pm 22.6 22.5 15.0 62 4.5 SSW 9 15 5 8 1020.5 1020.5 -
01/11:30am 22.8 23.2 15.4 63 4.4 WSW 7 15 4 8 1021.2 1021.2 0.0
01/11:00am 22.2 22.1 16.0 68 3.7 SW 11 15 6 8 1021.5 1021.5 0.0
01/10:30am 22.1 22.3 15.7 67 3.8 SW 9 17 5 9 1022.0 1022.0 0.0
01/10:00am 21.8 21.7 15.9 69 3.5 SW 11 15 6 8 1022.2 1022.2 0.0
01/09:30am 21.2 21.0 15.7 71 3.3 WSW 11 15 6 8 1022.3 1022.3 0.0
01/09:00am 19.5 19.2 15.4 77 2.4 WSW 11 15 6 8 1022.5 1022.5 0.0
01/08:30am 18.6 17.9 15.5 82 1.8 WSW 13 17 7 9 1022.6 1022.6 0.0
01/08:00am 17.7 18.1 17.2 97 0.3 W 11 15 6 8 1022.7 1022.7 0.0
01/07:30am 16.0 17.9 15.8 99 0.1 CALM 0 0 0 0 1022.4 1022.4 0.0
01/07:00am 13.4 14.4 13.2 99 0.1 CALM 0 0 0 0 1022.2 1022.2 0.0
01/06:52am 13.0 13.9 12.8 99 0.1 CALM 0 0 0 0 1022.1 1022.1 0.0
01/06:34am 12.1 12.7 11.9 99 0.1 CALM 0 0 0 0 1021.8 1021.8 0.0
01/06:31am 11.8 12.3 11.6 99 0.1 CALM 0 0 0 0 1021.8 1021.8 0.0
01/06:30am 11.9 12.4 11.7 99 0.1 CALM 0 0 0 0 1021.7 1021.7 0.0
01/06:08am 11.6 12.0 11.4 99 0.1 CALM 0 0 0 0 1021.6 1021.6 0.0
01/06:00am 11.6 12.0 11.4 99 0.1 CALM 0 0 0 0 1021.5 1021.5 0.0
01/05:51am 11.9 12.4 11.7 99 0.1 CALM 0 0 0 0 1021.4 1021.4 0.0
01/05:32am 12.0 12.6 11.8 99 0.1 CALM 0 0 0 0 1021.2 1021.2 0.0
01/05:30am 12.4 13.1 12.2 99 0.1 CALM 0 0 0 0 1021.1 1021.1 0.0
01/05:21am 11.8 12.3 11.6 99 0.1 CALM 0 0 0 0 1021.1 1021.1 0.0
01/05:02am 12.0 12.6 11.8 99 0.1 CALM 0 0 0 0 1020.9 1020.9 0.0
01/05:01am 11.9 12.4 11.7 99 0.1 CALM 0 0 0 0 1020.9 1020.9 0.0
01/05:00am 11.8 12.3 11.6 99 0.1 CALM 0 0 0 0 1020.9 1020.9 0.0
01/04:30am 12.2 12.8 12.0 99 0.1 CALM 0 0 0 0 1020.7 1020.7 0.0
01/04:00am 12.2 12.8 12.0 99 0.1 CALM 0 0 0 0 1020.7 1020.7 0.0
01/03:55am 12.4 13.1 12.2 99 0.1 CALM 0 0 0 0 1020.7 1020.7 0.0
01/03:49am 12.7 13.5 12.5 99 0.1 CALM 0 0 0 0 1020.8 1020.8 0.0
01/03:30am 12.5 13.2 12.3 99 0.1 CALM 0 0 0 0 1020.8 1020.8 0.0
01/03:00am 12.7 13.5 12.4 98 0.2 CALM 0 0 0 0 1020.9 1020.9 0.0
01/02:42am 12.9 13.7 12.6 98 0.2 CALM 0 0 0 0 1021.0 1021.0 0.0
01/02:30am 13.0 13.8 12.7 98 0.2 CALM 0 0 0 0 1021.0 1021.0 0.0
01/02:29am 13.1 14.0 12.8 98 0.2 CALM 0 0 0 0 1021.0 1021.0 0.0
01/02:15am 13.6 14.6 13.3 98 0.2 CALM 0 0 0 0 1021.0 1021.0 0.0
01/02:14am 13.5 14.5 13.2 98 0.2 CALM 0 0 0 0 1021.0 1021.0 0.0
01/02:00am 13.8 14.5 13.3 97 0.3 W 2 6 1 3 1021.0 1021.0 0.0
01/01:30am 14.2 14.2 13.7 97 0.3 W 6 6 3 3 1021.1 1021.1 0.0
01/01:00am 14.6 15.5 14.1 97 0.3 W 2 6 1 3 1021.2 1021.2 0.0
01/12:30am 14.9 15.2 14.4 97 0.3 WSW 6 7 3 4 1021.2 1021.2 0.0
01/12:00am 14.5 14.6 13.9 96 0.3 WSW 6 9 3 5 1021.3 1021.3 0.0
 
Date/Time
EST
Temp
°C
App
Temp
°C
Dew
Point
°C
Rel
Hum
%
Delta-T
°C
Wind Press
QNH
hPa
Press
MSL
hPa
Rain since
9am
mm
Dir  Spd
km/h
Gust
km/h
Spd
kts
Gust
kts
30/11:30pm 14.7 16.0 14.1 96 0.3 CALM 0 0 0 0 1021.5 1021.5 0.0
30/11:00pm 15.3 16.8 14.7 96 0.3 CALM 0 0 0 0 1021.7 1021.7 0.0
30/10:30pm 15.3 16.7 14.5 95 0.5 CALM 0 0 0 0 1021.6 1021.6 0.0
30/10:00pm 15.7 17.2 14.7 94 0.6 CALM 0 0 0 0 1021.8 1021.8 0.0
30/09:30pm 16.4 18.1 15.3 93 0.6 CALM 0 0 0 0 1021.9 1021.9 0.0
30/09:00pm 16.4 16.9 14.9 91 0.9 W 6 9 3 5 1021.9 1021.9 0.0
30/08:30pm 16.1 15.7 14.1 88 1.1 WSW 9 9 5 5 1021.9 1021.9 0.0
30/08:00pm 17.0 16.8 14.6 86 1.4 WSW 9 11 5 6 1021.7 1021.7 0.0
30/07:30pm 17.8 17.5 15.4 86 1.4 WSW 11 13 6 7 1021.5 1021.5 0.0
30/07:00pm 17.6 17.9 15.9 90 1.0 W 9 11 5 6 1021.3 1021.3 0.0
30/06:30pm 17.5 17.1 15.1 86 1.4 W 11 17 6 9 1021.2 1021.2 0.0
30/06:00pm 19.6 20.1 15.5 77 2.4 SW 7 9 4 5 1020.9 1020.9 0.0
30/05:30pm 20.3 20.5 15.7 75 2.7 SSW 9 13 5 7 1020.7 1020.7 0.0
30/05:00pm 20.4 19.7 15.4 73 3.0 S 13 17 7 9 1020.6 1020.6 0.0
30/04:30pm 21.2 20.5 15.3 69 3.5 S 13 20 7 11 1020.3 1020.3 0.0
30/04:00pm 21.5 19.4 15.1 67 3.8 S 20 28 11 15 1019.9 1019.9 0.0
30/03:30pm 21.8 19.3 15.2 66 3.9 S 22 32 12 17 1019.8 1019.8 0.0
30/03:00pm 22.0 19.6 15.4 66 3.9 SSW 22 30 12 16 1019.7 1019.7 0.0
30/02:30pm 22.1 19.5 15.0 64 4.2 S 22 30 12 16 1019.7 1019.7 0.0
30/02:00pm 22.8 20.8 15.6 64 4.3 S 20 30 11 16 1019.9 1019.9 0.0
30/01:30pm 22.4 19.6 15.3 64 4.2 S 24 32 13 17 1020.0 1020.0 0.0
30/01:00pm 22.2 19.2 14.8 63 4.4 SSW 24 33 13 18 1020.2 1020.2 0.0
30/12:30pm 22.3 19.7 14.9 63 4.4 SSW 22 32 12 17 1020.6 1020.6 0.0
30/12:00pm 22.9 20.4 15.2 62 4.6 SSW 22 32 12 17 1020.9 1020.9 0.0
30/11:30am 22.8 20.4 15.4 63 4.4 SSW 22 32 12 17 1021.2 1021.2 0.0
30/11:00am 21.9 20.0 15.3 66 3.9 SSW 19 30 10 16 1021.7 1021.7 0.0
30/10:30am 21.2 19.3 15.1 68 3.6 SW 19 30 10 16 1021.9 1021.9 0.0
30/10:00am 20.1 18.1 14.9 72 3.0 SW 19 28 10 15 1021.9 1021.9 0.0
30/09:30am 18.9 18.0 15.8 82 1.8 WSW 15 20 8 11 1022.0 1022.0 0.0
30/09:00am 17.2 16.5 15.4 89 1.0 WSW 13 17 7 9 1022.0 1022.0 0.8
30/08:30am 16.3 15.9 15.3 94 0.6 WSW 11 15 6 8 1022.0 1022.0 0.8
30/08:00am 16.2 16.1 15.9 98 0.2 W 11 15 6 8 1021.7 1021.7 0.6
30/07:30am 15.9 15.7 15.7 99 0.1 W 11 15 6 8 1021.5 1021.5 0.6
30/07:00am 15.6 15.7 15.4 99 0.1 W 9 13 5 7 1021.2 1021.2 0.6
30/06:43am 15.4 15.4 15.2 99 0.1 WSW 9 11 5 6 1021.0 1021.0 0.6
30/06:30am 15.4 15.4 15.2 99 0.1 WSW 9 11 5 6 1020.9 1020.9 0.6
30/06:26am 15.3 15.3 15.1 99 0.1 WSW 9 11 5 6 1020.9 1020.9 0.4
30/06:00am 15.1 15.0 14.9 99 0.1 WSW 9 13 5 7 1020.6 1020.6 0.2
30/05:30am 13.7 14.8 13.5 99 0.1 CALM 0 0 0 0 1020.3 1020.3 0.0
30/05:00am 12.4 11.8 12.2 99 0.1 WSW 7 11 4 6 1019.8 1019.8 0.0
30/04:30am 13.0 12.5 12.8 99 0.1 W 7 9 4 5 1019.6 1019.6 0.0
30/04:00am 12.8 12.5 12.6 99 0.1 W 6 9 3 5 1019.4 1019.4 0.0
30/03:30am 12.8 12.5 12.6 99 0.1 W 6 11 3 6 1019.3 1019.3 0.0
30/03:00am 13.1 12.3 12.9 99 0.1 W 9 11 5 6 1019.3 1019.3 0.0
30/02:39am 12.6 13.0 12.4 99 0.1 W 2 6 1 3 1019.4 1019.4 0.0
30/02:30am 12.7 13.5 12.5 99 0.1 CALM 0 0 0 0 1019.4 1019.4 0.0
30/02:14am 12.6 13.4 12.4 99 0.1 CALM 0 0 0 0 1019.5 1019.5 0.0
30/02:00am 12.8 13.6 12.6 99 0.1 CALM 0 0 0 0 1019.6 1019.6 0.0
30/01:34am 13.0 13.9 12.8 99 0.1 CALM 0 0 0 0 1019.9 1019.9 0.0
30/01:30am 13.0 13.9 12.8 99 0.1 CALM 0 0 0 0 1019.9 1019.9 0.0
30/01:12am 12.6 13.4 12.4 99 0.1 CALM 0 0 0 0 1019.8 1019.8 0.0
30/01:00am 13.0 13.9 12.8 99 0.1 CALM 0 0 0 0 1019.8 1019.8 0.0
30/12:30am 13.0 13.9 12.8 99 0.1 CALM 0 0 0 0 1019.9 1019.9 0.0
30/12:00am 12.9 13.7 12.6 98 0.2 CALM 0 0 0 0 1020.0 1020.0 0.0
 
Date/Time
EST
Temp
°C
App
Temp
°C
Dew
Point
°C
Rel
Hum
%
Delta-T
°C
Wind Press
QNH
hPa
Press
MSL
hPa
Rain since
9am
mm
Dir  Spd
km/h
Gust
km/h
Spd
kts
Gust
kts
29/11:30pm 13.2 14.1 12.9 98 0.2 CALM 0 0 0 0 1019.9 1019.9 0.0
29/11:00pm 12.9 13.7 12.6 98 0.2 CALM 0 0 0 0 1019.9 1019.9 0.0
29/10:30pm 12.8 13.5 12.3 97 0.3 CALM 0 0 0 0 1019.9 1019.9 0.0
29/10:00pm 13.6 13.9 13.3 98 0.2 W 4 6 2 3 1020.2 1020.2 0.0
29/09:30pm 13.4 13.0 12.9 97 0.3 W 7 9 4 5 1020.2 1020.2 0.0
29/09:00pm 13.6 14.5 13.0 96 0.3 CALM 0 0 0 0 1019.9 1019.9 0.0
29/08:30pm 13.9 14.9 13.1 95 0.4 CALM 0 0 0 0 1019.8 1019.8 0.0
29/08:23pm 14.2 15.2 13.2 94 0.6 CALM 0 0 0 0 1019.8 1019.8 0.0
29/08:00pm 14.5 15.6 13.4 93 0.6 CALM 0 0 0 0 1019.8 1019.8 0.0
29/07:30pm 14.4 15.3 12.8 90 0.9 CALM 0 0 0 0 1019.7 1019.7 0.0
29/07:00pm 15.5 16.7 13.7 89 1.0 CALM 0 0 0 0 1019.6 1019.6 0.0
29/06:30pm 16.0 17.2 13.8 87 1.2 CALM 0 0 0 0 1019.4 1019.4 0.0
29/06:00pm 17.1 18.3 13.8 81 1.9 CALM 0 0 0 0 1019.1 1019.1 0.0
29/05:30pm 19.0 18.9 13.8 72 3.0 S 7 11 4 6 1019.0 1019.0 0.0
29/05:00pm 19.7 18.9 13.9 69 3.3 S 11 17 6 9 1018.7 1018.7 0.0
29/04:30pm 20.7 18.7 13.9 65 3.9 S 17 24 9 13 1018.5 1018.5 0.0
29/04:00pm 21.3 19.4 14.2 64 4.1 SSE 17 24 9 13 1018.3 1018.3 0.0
29/03:30pm 21.7 19.6 13.6 60 4.7 S 17 28 9 15 1018.3 1018.3 0.0
29/03:00pm 21.8 19.1 13.4 59 4.8 S 20 28 11 15 1018.5 1018.5 0.0
29/02:30pm 22.2 20.0 14.3 61 4.6 SSW 19 30 10 16 1018.5 1018.5 0.0
29/02:00pm 21.9 19.3 13.8 60 4.7 SSW 20 30 11 16 1018.5 1018.5 0.0
29/01:30pm 21.9 18.5 13.8 60 4.7 SSW 24 35 13 19 1018.5 1018.5 0.0
29/01:00pm 22.2 19.1 13.5 57 5.0 SSW 22 32 12 17 1018.8 1018.8 0.0
29/12:30pm 22.7 20.3 14.3 59 4.9 S 20 28 11 15 1019.1 1019.1 0.0
29/12:00pm 22.1 19.4 13.5 58 5.0 SSW 20 30 11 16 1019.4 1019.4 0.0
29/11:30am 21.8 19.0 13.2 58 4.9 SSW 20 32 11 17 1019.8 1019.8 0.0
29/11:00am 21.5 18.1 12.6 57 5.0 SSW 22 32 12 17 1020.2 1020.2 0.0
29/10:30am 21.3 18.3 12.4 57 5.0 SW 20 30 11 16 1020.5 1020.5 0.0
29/10:00am 20.3 17.0 11.5 57 4.8 SW 20 28 11 15 1020.6 1020.6 0.0
29/09:30am 20.0 16.8 11.8 59 4.5 SW 20 30 11 16 1020.6 1020.6 0.0
29/09:00am 19.3 15.4 10.8 58 4.6 WSW 22 32 12 17 1020.5 1020.5 3.6
29/08:30am 18.3 14.1 9.9 58 4.5 WSW 22 33 12 18 1020.4 1020.4 3.6
29/08:00am 17.7 13.9 9.8 60 4.2 WSW 20 26 11 14 1020.1 1020.1 3.6
29/07:30am 16.9 13.2 9.6 62 3.8 WSW 19 22 10 12 1019.9 1019.9 3.6
29/07:00am 15.8 12.9 9.5 66 3.3 WSW 15 22 8 12 1019.3 1019.3 3.6
29/06:30am 14.4 11.0 9.0 70 2.7 WSW 17 22 9 12 1019.0 1019.0 3.6
29/06:00am 14.7 11.2 8.6 67 3.1 WSW 17 20 9 11 1018.7 1018.7 3.6
29/05:30am 14.6 11.1 8.8 68 2.9 WSW 17 20 9 11 1018.6 1018.6 3.6
29/05:00am 14.7 11.2 8.6 67 3.1 WSW 17 22 9 12 1018.4 1018.4 3.6
29/04:30am 14.8 11.8 9.2 69 2.9 WSW 15 19 8 10 1018.1 1018.1 3.6
29/04:00am 15.4 12.2 10.0 70 2.8 WSW 17 22 9 12 1018.1 1018.1 3.6
29/03:30am 15.0 11.8 10.0 72 2.6 WSW 17 22 9 12 1018.1 1018.1 3.6
29/03:00am 14.0 11.0 9.4 74 2.3 WSW 15 19 8 10 1018.0 1018.0 3.6
29/02:30am 15.0 11.7 9.4 69 2.9 SW 17 22 9 12 1018.0 1018.0 3.6
29/02:00am 15.3 11.6 9.4 68 3.0 SW 19 28 10 15 1018.0 1018.0 3.6
29/01:30am 15.4 11.9 10.2 71 2.7 WSW 19 24 10 13 1018.4 1018.4 3.6
29/01:00am 15.7 12.3 10.5 71 2.7 SW 19 26 10 14 1018.6 1018.6 3.6
29/12:30am 16.2 12.8 11.2 72 2.7 SW 20 26 11 14 1018.6 1018.6 3.6
29/12:00am 16.3 13.3 11.9 75 2.4 SW 19 26 10 14 1018.5 1018.5 3.6
 
Date/Time
EST
Temp
°C
App
Temp
°C
Dew
Point
°C
Rel
Hum
%
Delta-T
°C
Wind Press
QNH
hPa
Press
MSL
hPa
Rain since
9am
mm
Dir  Spd
km/h
Gust
km/h
Spd
kts
Gust
kts
28/11:30pm 16.4 13.5 12.4 77 2.2 SW 19 28 10 15 1018.7 1018.7 3.6
28/11:00pm 16.2 13.4 13.3 83 1.6 SW 20 28 11 15 1018.8 1018.8 3.6
28/10:30pm 16.1 13.8 14.1 88 1.1 SW 19 28 10 15 1019.0 1019.0 3.6
28/10:28pm 16.1 13.9 14.3 89 1.0 WSW 19 28 10 15 1019.0 1019.0 3.6
28/10:11pm 16.1 14.7 14.6 91 0.9 SW 15 22 8 12 1019.1 1019.1 3.4
28/10:00pm 16.2 14.1 14.7 91 0.9 WSW 19 24 10 13 1018.8 1018.8 2.8
28/09:56pm 16.2 14.1 14.7 91 0.9 WSW 19 24 10 13 1019.0 1019.0 2.8
28/09:30pm 16.8 14.9 15.3 91 0.9 SW 19 28 10 15 1019.2 1019.2 2.8
28/09:10pm 16.7 15.1 14.9 89 1.0 SW 17 24 9 13 1019.0 1019.0 2.8
28/09:00pm 16.7 14.7 14.9 89 1.0 WSW 19 26 10 14 1018.8 1018.8 2.8
28/08:30pm 18.0 16.2 16.0 88 1.2 SSW 20 32 11 17 1018.4 1018.4 2.6
28/08:00pm 17.9 15.9 16.4 91 0.9 SSW 22 33 12 18 1018.5 1018.5 2.6
28/07:59pm 17.9 15.9 16.4 91 0.9 SSW 22 33 12 18 1018.5 1018.5 2.6
28/07:58pm 17.8 15.7 16.3 91 0.9 SSW 22 33 12 18 1018.5 1018.5 2.6
28/07:48pm 17.4 15.6 16.1 92 0.8 SSW 20 30 11 16 1018.5 1018.5 2.6
28/07:40pm 17.3 15.0 15.8 91 0.9 SW 22 39 12 21 1018.4 1018.4 2.4
28/07:30pm 17.6 15.5 16.1 91 0.9 SW 22 35 12 19 1018.3 1018.3 2.0
28/07:19pm 17.6 15.6 16.5 93 0.7 SSW 22 43 12 23 1018.4 1018.4 2.0
28/07:00pm 17.4 14.8 15.9 91 0.9 SSW 24 37 13 20 1018.3 1018.3 1.6
28/06:59pm 17.5 14.9 16.0 91 0.9 SSW 24 39 13 21 1018.3 1018.3 1.4
28/06:52pm 17.4 14.3 15.7 90 1.0 SSW 26 43 14 23 1018.1 1018.1 1.0
28/06:49pm 17.4 14.0 15.7 90 1.0 SSW 28 46 15 25 1018.2 1018.2 1.0
28/06:39pm 17.6 14.1 15.4 87 1.3 SSW 28 44 15 24 1018.2 1018.2 1.0
28/06:30pm 17.8 14.7 14.5 81 1.9 SW 24 33 13 18 1017.9 1017.9 0.6
28/06:15pm 18.0 14.1 14.5 80 2.0 SSW 28 46 15 25 1017.8 1017.8 0.6
28/06:00pm 18.1 14.0 14.8 81 1.9 SSW 30 43 16 23 1017.7 1017.7 0.6
28/05:33pm 18.3 14.5 14.6 79 2.1 SSW 28 48 15 26 1017.3 1017.3 0.4
28/05:30pm 18.3 14.6 15.0 81 1.9 SSW 28 43 15 23 1017.3 1017.3 0.4
28/05:07pm 18.2 13.4 14.7 80 2.0 SSW 33 52 18 28 1017.0 1017.0 0.4
28/05:00pm 18.5 14.0 14.8 79 2.1 SSW 32 46 17 25 1016.8 1016.8 0.4
28/04:30pm 18.3 14.3 15.2 82 1.8 SSW 30 48 16 26 1016.6 1016.6 0.4
28/04:06pm 18.1 13.6 15.5 85 1.5 SSW 33 54 18 29 1016.3 1016.3 0.4
28/04:00pm 18.1 14.0 15.9 87 1.3 SSW 32 54 17 29 1016.2 1016.2 0.4
28/03:48pm 18.1 13.0 15.7 86 1.4 SSW 37 59 20 32 1016.1 1016.1 0.2
28/03:30pm 19.7 14.9 14.7 73 2.9 SSW 33 52 18 28 1015.9 1015.9 0.0
28/03:00pm 19.8 14.3 14.8 73 2.9 SSW 37 61 20 33 1015.9 1015.9 0.0
28/02:30pm 19.1 14.5 15.0 77 2.4 SSW 33 52 18 28 1015.7 1015.7 0.0
28/02:00pm 20.2 14.5 14.1 68 3.5 SSW 37 57 20 31 1015.8 1015.8 0.0
28/01:30pm 19.8 14.5 14.2 70 3.2 SSW 35 57 19 31 1015.7 1015.7 0.0
28/01:00pm 19.7 13.4 13.4 67 3.6 SSW 39 59 21 32 1015.7 1015.7 0.0
28/12:30pm 19.6 13.5 13.1 66 3.7 SSW 37 59 20 32 1015.9 1015.9 0.0
28/12:19pm 20.2 13.3 12.9 63 4.1 SSW 41 67 22 36 1016.0 1016.0 0.0
28/12:05pm 20.8 16.6 13.5 63 4.2 SSW 28 46 15 25 1016.1 1016.1 0.0

Other Formats:

Comma delimited format used in spreadsheet applications
http://www.bom.gov.au/fwo/IDN60801/IDN60801.94596.axf

JavaScript Object Notation format (JSON) in row-major order
http://www.bom.gov.au/fwo/IDN60801/IDN60801.94596.json